createdAt,value
2017-12-05T00:02:03.692Z,31.98
2017-12-05T00:04:31.880Z,28.92
2017-12-05T00:06:59.315Z,25.75
2017-12-05T00:09:26.733Z,28.17
2017-12-05T00:11:54.260Z,28.65
2017-12-05T00:14:21.675Z,23.65
2017-12-05T00:16:49.229Z,24.17
2017-12-05T00:19:17.404Z,27.23
2017-12-05T00:21:45.630Z,27.17
2017-12-05T00:24:13.048Z,25.40
2017-12-05T00:26:40.631Z,27.35
2017-12-05T00:29:08.051Z,26.37
2017-12-05T00:31:36.265Z,23.45
2017-12-05T00:34:03.684Z,20.20
2017-12-05T00:36:31.181Z,27.33
2017-12-05T00:38:58.560Z,25.92
2017-12-05T00:41:25.997Z,23.77
2017-12-05T00:43:53.584Z,20.88
2017-12-05T00:46:21.776Z,25.65
2017-12-05T00:48:50.184Z,28.05
2017-12-05T00:51:17.664Z,27.35
2017-12-05T00:53:45.063Z,27.45
2017-12-05T00:56:12.632Z,23.75
2017-12-05T00:58:41.752Z,24.10
2017-12-05T01:01:09.168Z,25.67
2017-12-05T01:03:36.591Z,23.95
2017-12-05T01:06:04.776Z,26.27
2017-12-05T01:08:33.158Z,23.75
2017-12-05T01:11:00.595Z,28.75
2017-12-05T01:13:28.793Z,25.58
2017-12-05T01:15:56.277Z,24.58
2017-12-05T01:18:23.764Z,23.05
2017-12-05T01:20:51.179Z,26.98
2017-12-05T01:23:18.608Z,33.20
2017-12-05T01:25:46.791Z,30.25
2017-12-05T01:28:14.236Z,30.30
2017-12-05T01:30:41.648Z,29.58
2017-12-05T01:33:09.180Z,28.52
2017-12-05T01:35:36.604Z,30.95
2017-12-05T01:38:04.015Z,29.85
2017-12-05T01:40:32.331Z,32.35
2017-12-05T01:42:59.816Z,32.47
2017-12-05T01:45:27.252Z,32.88
2017-12-05T01:47:54.672Z,27.40
2017-12-05T01:50:22.880Z,28.45
2017-12-05T01:52:50.386Z,30.33
2017-12-05T01:55:17.846Z,26.95
2017-12-05T01:57:45.324Z,25.30
2017-12-05T02:00:12.748Z,26.65
2017-12-05T02:02:40.172Z,31.02
2017-12-05T02:05:08.359Z,26.92
2017-12-05T02:07:36.544Z,27.15
2017-12-05T02:10:04.068Z,30.95
2017-12-05T02:12:31.479Z,27.85
2017-12-05T02:14:59.952Z,27.00
2017-12-05T02:17:27.385Z,24.17
2017-12-05T02:19:54.804Z,30.77
2017-12-05T02:22:22.984Z,27.70
2017-12-05T02:24:50.497Z,27.90
2017-12-05T02:27:17.916Z,25.27
2017-12-05T02:29:45.388Z,30.27
2017-12-05T02:32:12.808Z,29.12
2017-12-05T02:34:40.245Z,28.85
2017-12-05T02:37:07.705Z,29.30
2017-12-05T02:39:35.124Z,28.33
2017-12-05T02:42:02.563Z,26.65
2017-12-05T02:44:30.749Z,25.02
2017-12-05T02:46:58.977Z,24.77
2017-12-05T02:49:26.395Z,28.08
2017-12-05T02:51:53.933Z,27.35
2017-12-05T02:54:21.416Z,32.70
2017-12-05T02:56:48.900Z,27.08
2017-12-05T02:59:16.379Z,31.35
2017-12-05T03:01:43.788Z,30.42
2017-12-05T03:04:11.232Z,34.70
2017-12-05T03:06:39.541Z,29.83
2017-12-05T03:09:07.740Z,30.85
2017-12-05T03:11:35.204Z,31.95
2017-12-05T03:14:02.604Z,32.80
2017-12-05T03:16:30.027Z,34.42
2017-12-05T03:18:57.452Z,31.37
2017-12-05T03:21:25.644Z,29.63
2017-12-05T03:23:53.832Z,30.20
2017-12-05T03:26:21.264Z,27.98
2017-12-05T03:28:48.688Z,34.65
2017-12-05T03:31:16.110Z,30.33
2017-12-05T03:33:44.288Z,33.17
2017-12-05T03:36:12.512Z,33.08
2017-12-05T03:38:39.990Z,28.85
2017-12-05T03:41:08.900Z,32.17
2017-12-05T03:43:36.488Z,30.95
2017-12-05T03:46:03.912Z,31.87
2017-12-05T03:48:32.376Z,29.23
2017-12-05T03:50:59.858Z,27.52
2017-12-05T03:53:28.060Z,30.37
2017-12-05T03:55:55.543Z,29.05
2017-12-05T03:58:23.024Z,31.08
2017-12-05T04:00:50.505Z,27.85
2017-12-05T04:03:17.992Z,26.95
2017-12-05T04:05:45.422Z,31.05
2017-12-05T04:08:12.849Z,31.95
2017-12-05T04:10:40.336Z,31.27
2017-12-05T04:13:07.776Z,33.03
2017-12-05T04:15:35.292Z,27.77
2017-12-05T04:18:02.715Z,26.33
2017-12-05T04:20:30.140Z,35.42
2017-12-05T04:22:58.345Z,32.15
2017-12-05T04:25:26.532Z,31.10
2017-12-05T04:27:54.044Z,30.23
2017-12-05T04:30:21.520Z,33.17
2017-12-05T04:32:48.948Z,30.60
2017-12-05T04:35:16.418Z,27.15
2017-12-05T04:37:43.972Z,28.75
2017-12-05T04:40:12.136Z,27.48
2017-12-05T04:42:39.656Z,32.13
2017-12-05T04:45:07.067Z,30.98
2017-12-05T04:47:34.512Z,26.55
2017-12-05T04:50:02.728Z,29.40
2017-12-05T04:52:30.144Z,32.97
2017-12-05T04:54:57.559Z,29.00
2017-12-05T04:57:25.778Z,31.50
2017-12-05T04:59:53.193Z,32.28
2017-12-05T05:02:20.624Z,31.90
2017-12-05T05:04:48.811Z,35.65
2017-12-05T05:07:16.235Z,32.30
2017-12-05T05:09:43.655Z,32.92
2017-12-05T05:12:11.084Z,30.75
2017-12-05T05:14:38.499Z,31.10
2017-12-05T05:17:05.928Z,35.97
2017-12-05T05:19:34.112Z,33.90
2017-12-05T05:22:01.624Z,34.95
2017-12-05T05:24:29.804Z,31.12
2017-12-05T05:26:58.038Z,34.63
2017-12-05T05:29:26.212Z,30.77
2017-12-05T05:31:54.395Z,31.73
2017-12-05T05:34:22.007Z,31.67
2017-12-05T05:36:50.172Z,35.30
2017-12-05T05:39:17.692Z,33.92
2017-12-05T05:41:45.115Z,36.85
2017-12-05T05:44:12.561Z,36.00
2017-12-05T05:46:40.016Z,33.17
2017-12-05T05:49:08.212Z,35.25
2017-12-05T05:51:36.400Z,32.50
2017-12-05T05:54:03.908Z,30.27
2017-12-05T05:56:32.116Z,34.97
2017-12-05T05:58:59.543Z,35.22
2017-12-05T06:01:26.973Z,31.55
2017-12-05T06:03:54.463Z,31.42
2017-12-05T06:06:21.942Z,32.65
2017-12-05T06:08:51.068Z,31.27
2017-12-05T06:11:18.547Z,31.92
2017-12-05T06:13:45.976Z,31.23
2017-12-05T06:16:13.413Z,35.60
2017-12-05T06:18:41.927Z,34.85
2017-12-05T06:21:10.091Z,34.67
2017-12-05T06:23:38.311Z,35.20
2017-12-05T06:26:05.728Z,35.50
2017-12-05T06:28:34.136Z,33.28
2017-12-05T06:31:01.680Z,33.28
2017-12-05T06:33:29.079Z,36.38
2017-12-05T06:35:56.540Z,33.00
2017-12-05T06:38:23.964Z,33.13
2017-12-05T06:40:51.384Z,36.28
2017-12-05T06:43:19.615Z,31.65
2017-12-05T06:45:47.036Z,33.75
2017-12-05T06:48:14.576Z,28.73
2017-12-05T06:50:42.001Z,31.00
2017-12-05T06:53:09.424Z,28.17
2017-12-05T06:55:37.608Z,25.05
2017-12-05T06:58:05.032Z,25.83
2017-12-05T07:00:32.539Z,29.23
2017-12-05T07:02:59.920Z,26.27
2017-12-05T07:05:27.352Z,21.50
2017-12-05T07:07:54.784Z,22.92
2017-12-05T07:10:22.199Z,19.83
2017-12-05T07:12:50.435Z,18.10
2017-12-05T07:15:17.852Z,18.33
2017-12-05T07:17:45.386Z,17.92
2017-12-05T07:20:13.588Z,15.50
2017-12-05T07:22:41.003Z,13.07
2017-12-05T07:25:08.443Z,14.82
2017-12-05T07:27:36.611Z,16.30
2017-12-05T07:30:04.036Z,16.65
2017-12-05T07:32:31.456Z,11.60
2017-12-05T07:34:58.876Z,14.87
2017-12-05T07:37:27.084Z,15.65
2017-12-05T07:39:54.567Z,14.10
2017-12-05T07:42:22.743Z,13.32
2017-12-05T07:44:50.256Z,12.02
2017-12-05T07:47:17.739Z,13.73
2017-12-05T07:49:45.940Z,12.15
2017-12-05T07:52:13.429Z,11.57
2017-12-05T07:54:40.906Z,12.35
2017-12-05T07:57:09.106Z,11.50
2017-12-05T07:59:37.296Z,13.18
2017-12-05T08:02:05.505Z,12.55
2017-12-05T08:04:32.927Z,11.60
2017-12-05T08:07:00.363Z,11.55
2017-12-05T08:09:28.553Z,9.73
2017-12-05T08:11:56.736Z,13.57
2017-12-05T08:14:24.156Z,10.50
2017-12-05T08:16:51.578Z,12.98
2017-12-05T08:19:19.109Z,12.73
2017-12-05T08:21:47.316Z,10.25
2017-12-05T08:24:14.727Z,12.98
2017-12-05T08:26:42.165Z,12.10
2017-12-05T08:29:09.588Z,11.15
2017-12-05T08:31:37.032Z,11.20
2017-12-05T08:34:04.523Z,11.48
2017-12-05T08:36:33.448Z,14.45
2017-12-05T08:39:00.867Z,11.15
2017-12-05T08:41:28.322Z,12.85
2017-12-05T08:43:55.798Z,11.00
2017-12-05T08:46:23.227Z,12.32
2017-12-05T08:48:50.644Z,16.35
2017-12-05T08:51:18.836Z,12.13
2017-12-05T08:53:46.388Z,18.15
2017-12-05T08:56:13.808Z,12.20
2017-12-05T08:58:42.012Z,17.55
2017-12-05T09:01:10.209Z,12.93
2017-12-05T09:03:37.623Z,15.57
2017-12-05T09:06:05.103Z,10.20
2017-12-05T09:08:33.316Z,12.80
2017-12-05T09:11:02.412Z,13.48
2017-12-05T09:13:29.831Z,14.23
2017-12-05T09:15:57.348Z,13.32
2017-12-05T09:18:25.800Z,10.82
2017-12-05T09:20:53.207Z,11.57
2017-12-05T09:23:20.636Z,11.98
2017-12-05T09:25:48.108Z,11.43
2017-12-05T09:28:15.802Z,14.77
2017-12-05T09:30:43.231Z,10.10
2017-12-05T09:33:10.756Z,14.05
2017-12-05T09:35:38.173Z,13.95
2017-12-05T09:38:05.621Z,9.57
2017-12-05T09:40:33.796Z,12.00
2017-12-05T09:43:02.023Z,13.23
2017-12-05T09:45:29.621Z,15.77
2017-12-05T09:47:57.048Z,16.30
2017-12-05T09:50:24.469Z,9.55
2017-12-05T09:52:52.684Z,12.68
2017-12-05T09:55:20.148Z,14.25
2017-12-05T09:57:47.572Z,13.02
2017-12-05T10:00:15.012Z,9.57
2017-12-05T10:02:42.491Z,8.60
2017-12-05T10:05:09.904Z,9.73
2017-12-05T10:07:37.368Z,8.75
2017-12-05T10:10:04.841Z,13.50
2017-12-05T10:12:32.279Z,8.38
2017-12-05T10:14:59.696Z,19.73
2017-12-05T10:17:27.896Z,12.73
2017-12-05T10:19:56.099Z,10.68
2017-12-05T10:22:23.512Z,12.32
2017-12-05T10:24:50.948Z,12.57
2017-12-05T10:27:19.164Z,8.38
2017-12-05T10:29:46.645Z,9.98
2017-12-05T10:32:14.152Z,14.45
2017-12-05T10:34:41.605Z,12.27
2017-12-05T10:37:09.032Z,10.45
2017-12-05T10:39:36.448Z,11.95
2017-12-05T10:42:04.763Z,9.77
2017-12-05T10:44:32.282Z,10.93
2017-12-05T10:46:59.688Z,12.57
2017-12-05T10:49:27.119Z,15.68
2017-12-05T10:51:55.296Z,16.37
2017-12-05T10:54:22.719Z,13.98
2017-12-05T10:56:50.137Z,14.50
2017-12-05T10:59:17.560Z,15.88
2017-12-05T11:01:45.172Z,12.27
2017-12-05T11:04:12.597Z,17.58
2017-12-05T11:06:40.012Z,14.40
2017-12-05T11:09:07.436Z,9.65
2017-12-05T11:11:34.860Z,13.70
2017-12-05T11:14:02.284Z,12.57
2017-12-05T11:16:29.700Z,11.02
2017-12-05T11:18:57.148Z,16.52
2017-12-05T11:21:24.560Z,15.70
2017-12-05T11:23:52.008Z,16.37
2017-12-05T11:26:19.424Z,12.52
2017-12-05T11:28:46.863Z,10.73
2017-12-05T11:31:15.052Z,13.73
2017-12-05T11:33:43.283Z,16.37
2017-12-05T11:36:10.750Z,11.82
2017-12-05T11:38:38.948Z,13.13
2017-12-05T11:41:06.429Z,11.30
2017-12-05T11:43:33.872Z,12.50
2017-12-05T11:46:01.287Z,10.90
2017-12-05T11:48:30.452Z,11.75
2017-12-05T11:50:57.880Z,18.48
2017-12-05T11:53:26.109Z,10.63
2017-12-05T11:55:53.581Z,13.25
2017-12-05T11:58:20.971Z,12.43
2017-12-05T12:00:48.421Z,13.15
2017-12-05T12:03:16.600Z,11.77
2017-12-05T12:05:44.058Z,12.32
2017-12-05T12:08:11.500Z,13.85
2017-12-05T12:10:38.924Z,9.38
2017-12-05T12:13:06.353Z,13.15
2017-12-05T12:15:34.540Z,12.98
2017-12-05T12:18:02.724Z,18.33
2017-12-05T12:20:30.164Z,14.73
2017-12-05T12:22:57.563Z,14.07
2017-12-05T12:25:25.004Z,13.10
2017-12-05T12:27:53.176Z,13.98
2017-12-05T12:30:20.690Z,17.08
2017-12-05T12:32:48.108Z,13.50
2017-12-05T12:35:15.528Z,10.40
2017-12-05T12:37:43.720Z,19.00
2017-12-05T12:40:11.283Z,11.68
2017-12-05T12:42:38.665Z,13.13
2017-12-05T12:45:06.112Z,12.18
2017-12-05T12:47:33.589Z,13.43
2017-12-05T12:50:01.084Z,13.38
2017-12-05T12:52:28.495Z,14.10
2017-12-05T12:54:55.937Z,13.07
2017-12-05T12:57:24.108Z,14.48
2017-12-05T12:59:51.619Z,14.60
2017-12-05T13:02:19.032Z,17.37
2017-12-05T13:04:46.584Z,20.12
2017-12-05T13:07:14.062Z,14.68
2017-12-05T13:09:42.260Z,13.68
2017-12-05T13:12:09.699Z,19.10
2017-12-05T13:14:37.242Z,13.50
2017-12-05T13:17:04.729Z,14.05
2017-12-05T13:19:32.152Z,14.93
2017-12-05T13:21:59.574Z,14.10
2017-12-05T13:24:27.809Z,17.45
2017-12-05T13:26:55.269Z,12.93
2017-12-05T13:29:22.695Z,13.20
2017-12-05T13:31:50.208Z,17.37
2017-12-05T13:34:17.716Z,16.70
2017-12-05T13:36:45.130Z,15.73
2017-12-05T13:39:12.558Z,15.15
2017-12-05T13:41:40.740Z,14.27
2017-12-05T13:44:08.168Z,15.07
2017-12-05T13:46:35.641Z,16.45
2017-12-05T13:49:03.840Z,17.08
2017-12-05T13:51:31.321Z,14.30
2017-12-05T13:53:58.805Z,14.93
2017-12-05T13:56:27.079Z,13.35
2017-12-05T13:58:54.492Z,18.37
2017-12-05T14:01:21.968Z,15.55
2017-12-05T14:03:49.453Z,14.40
2017-12-05T14:06:16.884Z,11.55
2017-12-05T14:08:44.312Z,15.85
2017-12-05T14:11:11.745Z,16.30
2017-12-05T14:13:39.156Z,15.07
2017-12-05T14:16:07.344Z,15.77
2017-12-05T14:18:34.764Z,18.20
2017-12-05T14:21:02.241Z,13.25
2017-12-05T14:23:29.668Z,14.00
2017-12-05T14:25:57.199Z,17.90
2017-12-05T14:28:25.406Z,13.43
2017-12-05T14:30:52.828Z,14.57
2017-12-05T14:33:20.244Z,13.15
2017-12-05T14:35:47.761Z,14.00
2017-12-05T14:38:15.364Z,14.87
2017-12-05T14:40:42.840Z,14.87
2017-12-05T14:43:10.356Z,14.85
2017-12-05T14:45:37.995Z,16.87
2017-12-05T14:48:06.378Z,17.45
2017-12-05T14:50:33.852Z,17.33
2017-12-05T14:53:01.360Z,19.27
2017-12-05T14:55:28.783Z,15.10
2017-12-05T14:57:56.213Z,14.82
2017-12-05T15:00:23.624Z,21.80
2017-12-05T15:02:51.837Z,21.52
2017-12-05T15:05:19.260Z,17.90
2017-12-05T15:07:46.688Z,21.75
2017-12-05T15:10:14.120Z,20.58
2017-12-05T15:12:41.549Z,14.98
2017-12-05T15:15:09.752Z,16.10
2017-12-05T15:17:37.237Z,17.30
2017-12-05T15:20:05.727Z,17.30
2017-12-05T15:22:33.120Z,18.20
2017-12-05T15:25:00.603Z,18.70
2017-12-05T15:27:28.096Z,17.73
2017-12-05T15:29:55.515Z,17.92
2017-12-05T15:32:22.968Z,19.48
2017-12-05T15:34:50.448Z,15.65
2017-12-05T15:37:17.932Z,19.60
2017-12-05T15:39:45.436Z,17.42
2017-12-05T15:42:12.866Z,18.12
2017-12-05T15:44:40.439Z,21.65
2017-12-05T15:47:08.681Z,23.48
2017-12-05T15:49:36.102Z,20.23
2017-12-05T15:52:03.512Z,21.87
2017-12-05T15:54:31.712Z,20.00
2017-12-05T15:56:59.236Z,20.98
2017-12-05T15:59:26.708Z,21.25
2017-12-05T16:01:54.191Z,23.60
2017-12-05T16:04:21.693Z,21.08
2017-12-05T16:06:49.084Z,21.45
2017-12-05T16:09:16.676Z,21.70
2017-12-05T16:11:44.093Z,22.30
2017-12-05T16:14:11.544Z,24.08
2017-12-05T16:16:39.012Z,20.48
2017-12-05T16:19:06.492Z,23.12
2017-12-05T16:21:34.684Z,24.12
2017-12-05T16:24:02.900Z,23.65
2017-12-05T16:26:30.400Z,22.83
2017-12-05T16:28:57.808Z,20.30
2017-12-05T16:31:25.224Z,20.80
2017-12-05T16:33:52.732Z,22.13
2017-12-05T16:36:20.312Z,21.30
2017-12-05T16:38:48.503Z,21.42
2017-12-05T16:41:16.820Z,24.23
2017-12-05T16:43:45.018Z,22.55
2017-12-05T16:46:12.496Z,20.15
2017-12-05T16:48:40.902Z,22.90
2017-12-05T16:51:09.081Z,18.48
2017-12-05T16:53:37.284Z,19.52
2017-12-05T16:56:06.476Z,20.12
2017-12-05T16:58:33.910Z,19.00
2017-12-05T17:01:01.340Z,16.30
2017-12-05T17:03:28.772Z,22.27
2017-12-05T17:05:56.200Z,18.58
2017-12-05T17:08:23.640Z,20.60
2017-12-05T17:10:51.220Z,21.98
2017-12-05T17:13:18.712Z,18.58
2017-12-05T17:15:46.135Z,18.62
2017-12-05T17:18:13.560Z,21.08
2017-12-05T17:20:40.988Z,18.48
2017-12-05T17:23:08.420Z,19.90
2017-12-05T17:25:35.855Z,19.65
2017-12-05T17:28:03.272Z,18.00
2017-12-05T17:30:31.476Z,21.33
2017-12-05T17:32:59.681Z,17.87
2017-12-05T17:35:27.110Z,19.17
2017-12-05T17:37:54.532Z,18.10
2017-12-05T17:40:22.720Z,20.90
2017-12-05T17:42:50.228Z,23.70
2017-12-05T17:45:17.688Z,22.55
2017-12-05T17:47:45.871Z,20.73
2017-12-05T17:50:13.492Z,19.85
2017-12-05T17:52:40.883Z,22.35
2017-12-05T17:55:08.371Z,17.87
2017-12-05T17:57:35.788Z,19.05
2017-12-05T18:00:03.228Z,22.25
2017-12-05T18:02:30.648Z,19.90
2017-12-05T18:04:58.326Z,18.75
2017-12-05T18:07:25.748Z,19.55
2017-12-05T18:09:53.972Z,19.00
2017-12-05T18:12:21.456Z,18.95
2017-12-05T18:14:48.873Z,21.58
2017-12-05T18:17:16.374Z,19.30
2017-12-05T18:19:43.792Z,21.05
2017-12-05T18:22:12.815Z,20.52
2017-12-05T18:24:42.346Z,20.40
2017-12-05T18:27:09.847Z,18.48
2017-12-05T18:29:37.312Z,19.80
2017-12-05T18:32:04.767Z,18.25
2017-12-05T18:34:32.988Z,20.60
2017-12-05T18:37:00.474Z,19.52
2017-12-05T18:39:27.900Z,16.75
2017-12-05T18:41:55.344Z,20.77
2017-12-05T18:44:22.841Z,22.17
2017-12-05T18:46:50.309Z,19.42
2017-12-05T18:49:17.760Z,22.98
2017-12-05T18:51:45.960Z,19.25
2017-12-05T18:54:14.183Z,18.52
2017-12-05T18:56:41.607Z,19.40
2017-12-05T18:59:09.045Z,18.10
2017-12-05T19:01:36.524Z,18.95
2017-12-05T19:04:03.944Z,20.33
2017-12-05T19:06:31.392Z,20.37
2017-12-05T19:08:58.976Z,20.77
2017-12-05T19:11:27.195Z,21.92
2017-12-05T19:13:54.660Z,19.40
2017-12-05T19:16:22.140Z,22.52
2017-12-05T19:18:50.487Z,21.48
2017-12-05T19:21:17.944Z,21.67
2017-12-05T19:23:45.372Z,18.15
2017-12-05T19:26:12.884Z,17.62
2017-12-05T19:28:40.367Z,19.37
2017-12-05T19:31:07.792Z,20.02
2017-12-05T19:33:35.336Z,21.05
2017-12-05T19:36:03.500Z,20.25
2017-12-05T19:38:30.929Z,22.08
2017-12-05T19:40:58.348Z,21.25
2017-12-05T19:43:25.772Z,20.35
2017-12-05T19:45:53.956Z,20.27
2017-12-05T19:48:22.152Z,18.25
2017-12-05T19:50:49.630Z,21.67
2017-12-05T19:53:17.044Z,20.98
2017-12-05T19:55:44.938Z,20.62
2017-12-05T19:58:13.113Z,19.80
2017-12-05T20:00:41.332Z,23.45
2017-12-05T20:03:09.533Z,22.35
2017-12-05T20:05:36.967Z,20.17
2017-12-05T20:08:04.396Z,20.65
2017-12-05T20:10:31.825Z,23.00
2017-12-05T20:12:59.256Z,24.40
2017-12-05T20:15:26.768Z,24.15
2017-12-05T20:17:54.195Z,19.87
2017-12-05T20:20:21.700Z,22.83
2017-12-05T20:22:49.185Z,23.62
2017-12-05T20:25:17.364Z,22.60
2017-12-05T20:27:45.588Z,23.23
2017-12-05T20:30:13.020Z,21.98
2017-12-05T20:32:40.548Z,26.55
2017-12-05T20:35:08.112Z,22.80
2017-12-05T20:37:36.305Z,22.92
2017-12-05T20:40:03.732Z,20.30
2017-12-05T20:42:31.148Z,25.02
2017-12-05T20:44:58.574Z,21.37
2017-12-05T20:47:26.158Z,24.77
2017-12-05T20:49:53.564Z,24.73
2017-12-05T20:52:21.060Z,25.80
2017-12-05T20:54:48.492Z,21.25
2017-12-05T20:57:16.807Z,25.70
2017-12-05T20:59:44.231Z,24.83
2017-12-05T21:02:11.772Z,19.75
2017-12-05T21:04:39.250Z,24.50
2017-12-05T21:07:07.448Z,24.65
2017-12-05T21:09:34.873Z,23.87
2017-12-05T21:12:02.304Z,22.25
2017-12-05T21:14:30.484Z,23.85
2017-12-05T21:16:58.003Z,26.80
2017-12-05T21:19:25.428Z,23.50
2017-12-05T21:21:52.848Z,25.35
2017-12-05T21:24:21.036Z,28.62
2017-12-05T21:26:48.479Z,26.55
2017-12-05T21:29:16.023Z,24.63
2017-12-05T21:31:44.196Z,25.50
2017-12-05T21:34:11.611Z,28.08
2017-12-05T21:36:39.036Z,25.05
2017-12-05T21:39:06.451Z,24.98
2017-12-05T21:41:34.680Z,25.75
2017-12-05T21:44:02.144Z,24.58
2017-12-05T21:46:29.640Z,31.45
2017-12-05T21:48:57.060Z,27.95
2017-12-05T21:51:24.588Z,28.27
2017-12-05T21:53:52.796Z,29.30
2017-12-05T21:56:20.220Z,24.98
2017-12-05T21:58:47.640Z,22.40
2017-12-05T22:01:15.831Z,21.65
2017-12-05T22:03:44.011Z,21.87
2017-12-05T22:06:11.483Z,27.75
2017-12-05T22:08:38.913Z,22.35
2017-12-05T22:11:06.410Z,26.27
2017-12-05T22:13:33.840Z,25.95
2017-12-05T22:16:01.360Z,25.05
2017-12-05T22:18:28.792Z,21.95
2017-12-05T22:20:56.207Z,22.60
2017-12-05T22:23:24.404Z,21.08
2017-12-05T22:25:51.913Z,25.10
2017-12-05T22:28:19.347Z,22.00
2017-12-05T22:30:46.872Z,24.58
2017-12-05T22:33:14.304Z,26.05
2017-12-05T22:35:41.744Z,23.70
2017-12-05T22:38:09.175Z,23.10
2017-12-05T22:40:36.600Z,22.58
2017-12-05T22:43:04.080Z,26.17
2017-12-05T22:45:31.561Z,27.45
2017-12-05T22:47:59.737Z,25.90
2017-12-05T22:50:27.160Z,23.77
2017-12-05T22:52:54.624Z,24.27
2017-12-05T22:55:22.047Z,23.38
2017-12-05T22:57:49.485Z,20.95
2017-12-05T23:00:16.979Z,23.27
2017-12-05T23:02:44.400Z,21.25
2017-12-05T23:05:11.928Z,22.23
2017-12-05T23:07:39.356Z,22.58
2017-12-05T23:10:06.796Z,21.35
2017-12-05T23:12:34.212Z,30.50
2017-12-05T23:15:01.760Z,26.27
2017-12-05T23:17:29.957Z,23.20
2017-12-05T23:19:57.441Z,23.15
2017-12-05T23:22:24.924Z,21.70
2017-12-05T23:24:52.408Z,25.67
2017-12-05T23:27:19.827Z,25.98
2017-12-05T23:29:47.252Z,22.52
2017-12-05T23:32:15.452Z,28.70
2017-12-05T23:34:43.649Z,23.23
2017-12-05T23:37:11.860Z,26.62
2017-12-05T23:39:39.343Z,23.40
2017-12-05T23:42:06.767Z,28.23
2017-12-05T23:44:34.228Z,28.17
2017-12-05T23:47:01.696Z,25.45
2017-12-05T23:49:29.206Z,23.70
2017-12-05T23:51:56.604Z,24.87
2017-12-05T23:54:24.037Z,28.62
2017-12-05T23:56:51.460Z,27.02
2017-12-05T23:59:18.883Z,23.00
